createdAt,value
2023-02-15T00:01:53.867Z,1
2023-02-15T00:03:53.920Z,1
2023-02-15T00:05:53.321Z,1
2023-02-15T00:07:53.630Z,1
2023-02-15T00:09:57.349Z,1
2023-02-15T00:12:00.430Z,1
2023-02-15T00:13:53.841Z,1
2023-02-15T00:17:53.314Z,1
2023-02-15T00:19:53.709Z,1
2023-02-15T00:21:57.143Z,1
2023-02-15T00:25:57.193Z,1
2023-02-15T00:27:53.336Z,1
2023-02-15T00:29:57.313Z,1
2023-02-15T00:31:54.995Z,1
2023-02-15T00:33:53.809Z,1
2023-02-15T00:35:57.422Z,1
2023-02-15T00:38:00.386Z,1
2023-02-15T00:39:57.257Z,1
2023-02-15T00:43:54.082Z,1
2023-02-15T00:45:54.838Z,1
2023-02-15T00:47:53.417Z,1
2023-02-15T00:49:54.150Z,1
2023-02-15T00:51:54.005Z,1
2023-02-15T00:53:53.737Z,1
2023-02-15T00:55:54.116Z,1
2023-02-15T00:57:57.192Z,1
2023-02-15T00:59:53.914Z,1
2023-02-15T01:01:57.344Z,1
2023-02-15T01:03:54.130Z,1
2023-02-15T01:08:00.372Z,1
2023-02-15T01:09:53.158Z,1
2023-02-15T01:11:57.396Z,1
2023-02-15T01:13:53.497Z,1
2023-02-15T01:15:54.024Z,1
2023-02-15T01:17:53.271Z,1
2023-02-15T01:19:53.474Z,1
2023-02-15T01:21:54.037Z,1
2023-02-15T01:23:57.249Z,1
2023-02-15T01:25:57.214Z,1
2023-02-15T01:27:54.047Z,1
2023-02-15T01:29:53.717Z,1
2023-02-15T01:31:53.550Z,1
2023-02-15T01:33:54.021Z,1
2023-02-15T01:35:54.143Z,1
2023-02-15T01:37:53.359Z,1
2023-02-15T01:39:57.379Z,1
2023-02-15T01:41:54.215Z,1
2023-02-15T01:43:53.673Z,1
2023-02-15T01:45:54.207Z,1
2023-02-15T01:47:53.401Z,1
2023-02-15T01:50:00.993Z,1
2023-02-15T01:51:54.055Z,1
2023-02-15T01:53:53.996Z,1
2023-02-15T01:55:57.059Z,1
2023-02-15T01:57:53.855Z,1
2023-02-15T01:59:53.864Z,1
2023-02-15T02:01:53.489Z,1
2023-02-15T02:03:57.353Z,1
2023-02-15T02:05:53.794Z,1
2023-02-15T02:07:53.529Z,1
2023-02-15T02:09:53.809Z,1
2023-02-15T02:11:57.286Z,1
2023-02-15T02:13:53.799Z,1
2023-02-15T02:15:57.264Z,1
2023-02-15T02:17:54.075Z,1
2023-02-15T02:19:53.801Z,1
2023-02-15T02:21:54.190Z,1
2023-02-15T02:25:53.748Z,1
2023-02-15T02:27:57.284Z,1
2023-02-15T02:29:54.456Z,1
2023-02-15T02:31:53.329Z,1
2023-02-15T02:33:54.112Z,1
2023-02-15T02:35:53.927Z,1
2023-02-15T02:37:53.703Z,1
2023-02-15T02:39:57.277Z,1
2023-02-15T02:41:57.133Z,1
2023-02-15T02:43:53.754Z,1
2023-02-15T02:45:53.953Z,1
2023-02-15T02:47:53.756Z,1
2023-02-15T02:51:57.241Z,1
2023-02-15T02:53:53.892Z,1
2023-02-15T02:55:53.442Z,1
2023-02-15T02:57:53.350Z,1
2023-02-15T03:00:00.499Z,1
2023-02-15T03:01:56.900Z,1
2023-02-15T03:03:53.894Z,1
2023-02-15T03:05:54.197Z,1
2023-02-15T03:07:54.149Z,1
2023-02-15T03:09:57.304Z,1
2023-02-15T03:13:54.160Z,1
2023-02-15T03:15:54.294Z,1
2023-02-15T03:17:53.880Z,1
2023-02-15T03:19:54.059Z,1
2023-02-15T03:22:00.537Z,1
2023-02-15T03:25:53.941Z,1
2023-02-15T03:27:53.348Z,1
2023-02-15T03:29:53.792Z,1
2023-02-15T03:31:53.969Z,1
2023-02-15T03:33:53.979Z,1
2023-02-15T03:35:57.289Z,1
2023-02-15T03:37:54.109Z,1
2023-02-15T03:39:53.860Z,1
2023-02-15T03:43:53.986Z,1
2023-02-15T03:45:53.619Z,1
2023-02-15T03:47:54.378Z,1
2023-02-15T03:49:57.249Z,1
2023-02-15T03:51:54.255Z,1
2023-02-15T03:54:00.301Z,1
2023-02-15T03:55:57.396Z,1
2023-02-15T03:57:57.255Z,1
2023-02-15T03:59:57.520Z,1
2023-02-15T04:01:53.925Z,1
2023-02-15T04:03:53.921Z,1
2023-02-15T04:05:53.627Z,1
2023-02-15T04:08:00.408Z,1
2023-02-15T04:09:53.302Z,1
2023-02-15T04:11:56.155Z,1
2023-02-15T04:14:00.433Z,1
2023-02-15T04:15:54.080Z,1
2023-02-15T04:17:54.044Z,1
2023-02-15T04:20:00.137Z,1
2023-02-15T04:21:53.326Z,1
2023-02-15T04:23:57.189Z,1
2023-02-15T04:25:57.368Z,1
2023-02-15T04:27:57.263Z,1
2023-02-15T04:29:53.581Z,1
2023-02-15T04:31:54.265Z,1
2023-02-15T04:34:00.529Z,1
2023-02-15T04:35:53.605Z,1
2023-02-15T04:37:54.383Z,1
2023-02-15T04:39:56.438Z,1
2023-02-15T04:41:54.151Z,1
2023-02-15T04:43:53.862Z,1
2023-02-15T04:45:53.898Z,1
2023-02-15T04:48:00.750Z,1
2023-02-15T04:49:53.812Z,1
2023-02-15T04:51:53.844Z,1
2023-02-15T04:53:57.220Z,1
2023-02-15T04:57:53.331Z,1
2023-02-15T04:59:53.451Z,1
2023-02-15T05:01:54.161Z,1
2023-02-15T05:03:54.193Z,1
2023-02-15T05:05:54.183Z,1
2023-02-15T05:07:53.852Z,1
2023-02-15T05:09:57.156Z,1
2023-02-15T05:11:53.727Z,1
2023-02-15T05:13:53.719Z,1
2023-02-15T05:16:01.196Z,1
2023-02-15T05:17:53.787Z,1
2023-02-15T05:19:53.290Z,1
2023-02-15T05:21:53.770Z,1
2023-02-15T05:23:53.264Z,1
2023-02-15T05:25:57.394Z,1
2023-02-15T05:27:54.104Z,1
2023-02-15T05:29:57.421Z,1
2023-02-15T05:31:54.405Z,1
2023-02-15T05:33:57.220Z,1
2023-02-15T05:35:57.160Z,0
2023-02-15T05:37:53.142Z,0
2023-02-15T05:39:53.905Z,0
2023-02-15T05:41:56.996Z,0
2023-02-15T05:43:57.610Z,0
2023-02-15T05:46:01.380Z,0.1
2023-02-15T05:47:56.045Z,0.1
2023-02-15T05:49:56.740Z,0.2
2023-02-15T05:51:57.707Z,0.3
2023-02-15T05:54:00.835Z,0.4
2023-02-15T05:56:04.362Z,0.7
2023-02-15T05:58:00.739Z,0.9
2023-02-15T05:59:56.787Z,1.3
2023-02-15T06:01:57.390Z,1.9
2023-02-15T06:04:00.143Z,2.9
2023-02-15T06:06:01.083Z,4.1
2023-02-15T06:07:57.465Z,5.5
2023-02-15T06:09:57.328Z,7.8
2023-02-15T06:11:57.616Z,11
2023-02-15T06:14:02.684Z,14.2
2023-02-15T06:15:56.990Z,18.2
2023-02-15T06:18:03.744Z,23.3
2023-02-15T06:19:56.896Z,28.5
2023-02-15T06:22:00.916Z,36.6
2023-02-15T06:23:56.998Z,44.7
2023-02-15T06:25:57.291Z,54.6
2023-02-15T06:27:57.264Z,63.4
2023-02-15T06:29:56.925Z,77.5
2023-02-15T06:31:58.558Z,90
2023-02-15T06:34:01.145Z,99.5
2023-02-15T06:36:01.212Z,109.9
2023-02-15T06:40:03.578Z,127.7
2023-02-15T06:41:56.864Z,141.2
2023-02-15T06:43:57.351Z,156
2023-02-15T06:45:57.594Z,172.4
2023-02-15T06:47:57.638Z,200.3
2023-02-15T06:49:57.726Z,210.6
2023-02-15T06:51:57.047Z,232.8
2023-02-15T06:55:57.325Z,270.4
2023-02-15T06:57:57.461Z,284.3
2023-02-15T07:00:00.973Z,314.2
2023-02-15T07:02:00.996Z,330.3
2023-02-15T07:03:57.578Z,330.3
2023-02-15T07:05:57.365Z,347.2
2023-02-15T07:07:56.843Z,347.2
2023-02-15T07:09:56.999Z,365
2023-02-15T07:12:01.079Z,383.8
2023-02-15T07:15:57.065Z,445.9
2023-02-15T07:18:00.910Z,468.7
2023-02-15T07:19:57.589Z,518
2023-02-15T07:22:00.837Z,544.6
2023-02-15T07:23:56.992Z,544.6
2023-02-15T07:25:57.298Z,572.5
2023-02-15T07:29:56.850Z,665.1
2023-02-15T07:31:57.402Z,699.2
2023-02-15T07:34:03.434Z,735.1
2023-02-15T07:36:01.857Z,772.8
2023-02-15T07:38:00.749Z,812.4
2023-02-15T07:39:57.761Z,854.1
2023-02-15T07:42:01.025Z,854.1
2023-02-15T07:44:01.007Z,897.8
2023-02-15T07:45:57.334Z,943.9
2023-02-15T07:47:56.890Z,1043.1
2023-02-15T07:49:57.592Z,1096.6
2023-02-15T07:53:57.579Z,1152.9
2023-02-15T07:55:56.866Z,1212
2023-02-15T07:58:00.430Z,1212
2023-02-15T07:59:57.194Z,1274.1
2023-02-15T08:01:56.861Z,1274.1
2023-02-15T08:04:01.026Z,1339.4
2023-02-15T08:06:01.215Z,1408.1
2023-02-15T08:07:56.896Z,1480.3
2023-02-15T08:10:00.838Z,1556.2
2023-02-15T08:12:00.750Z,1636
2023-02-15T08:13:57.359Z,1556.2
2023-02-15T08:15:57.714Z,1556.2
2023-02-15T08:18:00.915Z,1556.2
2023-02-15T08:20:00.975Z,1636
2023-02-15T08:21:57.333Z,1719.9
2023-02-15T08:23:57.323Z,1900.7
2023-02-15T08:25:59.603Z,2100.6
2023-02-15T08:27:57.614Z,2100.6
2023-02-15T08:29:56.916Z,1998.2
2023-02-15T08:32:01.121Z,1998.2
2023-02-15T08:33:56.859Z,2100.6
2023-02-15T08:35:57.552Z,1998.2
2023-02-15T08:38:00.960Z,1998.2
2023-02-15T08:39:57.548Z,2100.6
2023-02-15T08:42:00.817Z,2208.3
2023-02-15T08:44:00.831Z,2100.6
2023-02-15T08:45:56.513Z,2100.6
2023-02-15T08:49:57.539Z,2100.6
2023-02-15T08:51:57.415Z,1998.2
2023-02-15T08:54:00.611Z,2100.6
2023-02-15T08:55:57.442Z,2100.6
2023-02-15T08:58:00.726Z,2100.6
2023-02-15T09:01:59.722Z,2100.6
2023-02-15T09:03:57.045Z,2321.6
2023-02-15T09:06:00.030Z,2440.6
2023-02-15T09:07:57.495Z,2440.6
2023-02-15T09:09:56.829Z,2440.6
2023-02-15T09:12:01.198Z,2440.6
2023-02-15T09:13:56.852Z,2565.7
2023-02-15T09:15:57.986Z,2565.7
2023-02-15T09:17:56.738Z,2697.3
2023-02-15T09:19:57.658Z,2835.6
2023-02-15T09:21:57.459Z,2835.6
2023-02-15T09:24:01.101Z,2835.6
2023-02-15T09:25:56.829Z,2835.6
2023-02-15T09:27:57.153Z,2981
2023-02-15T09:30:00.841Z,2981
2023-02-15T09:31:58.485Z,2981
2023-02-15T09:34:27.517Z,3133.8
2023-02-15T09:36:27.918Z,2981
2023-02-15T09:40:30.389Z,2981
2023-02-15T09:42:27.266Z,2981
2023-02-15T09:44:30.730Z,2981
2023-02-15T09:46:27.416Z,2981
2023-02-15T09:50:26.993Z,3133.8
2023-02-15T09:52:26.924Z,3294.5
2023-02-15T09:54:26.947Z,3294.5
2023-02-15T09:56:26.844Z,3133.8
2023-02-15T09:58:30.768Z,3133.8
2023-02-15T10:00:26.724Z,3133.8
2023-02-15T10:02:27.554Z,3294.5
2023-02-15T10:04:28.219Z,3463.4
2023-02-15T10:06:30.564Z,3463.4
2023-02-15T10:08:30.120Z,3463.4
2023-02-15T10:10:26.798Z,3294.5
2023-02-15T10:12:26.702Z,3294.5
2023-02-15T10:14:27.470Z,3294.5
2023-02-15T10:16:27.308Z,3463.4
2023-02-15T10:18:27.364Z,3463.4
2023-02-15T10:20:33.702Z,3641
2023-02-15T10:22:34.054Z,3641
2023-02-15T10:24:30.949Z,3641
2023-02-15T10:26:26.824Z,3463.4
2023-02-15T10:28:26.696Z,3463.4
2023-02-15T10:30:27.090Z,3641
2023-02-15T10:32:30.893Z,3827.6
2023-02-15T10:34:27.125Z,3641
2023-02-15T10:36:27.350Z,3463.4
2023-02-15T10:38:27.267Z,3463.4
2023-02-15T10:40:31.157Z,3827.6
2023-02-15T10:42:27.333Z,3827.6
2023-02-15T10:44:26.704Z,4023.9
2023-02-15T10:46:30.877Z,4230.2
2023-02-15T10:48:26.844Z,4230.2
2023-02-15T10:50:27.561Z,4230.2
2023-02-15T10:52:29.016Z,4023.9
2023-02-15T10:54:27.491Z,3827.6
2023-02-15T10:56:27.255Z,4023.9
2023-02-15T10:58:33.876Z,4023.9
2023-02-15T11:00:26.942Z,3827.6
2023-02-15T11:02:27.403Z,3641
2023-02-15T11:04:26.977Z,3641
2023-02-15T11:06:30.449Z,3641
2023-02-15T11:08:26.793Z,4023.9
2023-02-15T11:10:27.680Z,4230.2
2023-02-15T11:12:27.711Z,4675.1
2023-02-15T11:16:27.421Z,4914.8
2023-02-15T11:18:27.230Z,4914.8
2023-02-15T11:20:30.944Z,4914.8
2023-02-15T11:22:27.348Z,4675.1
2023-02-15T11:24:27.543Z,4447.1
2023-02-15T11:26:27.309Z,4914.8
2023-02-15T11:28:27.387Z,5431.7
2023-02-15T11:30:30.742Z,6002.9
2023-02-15T11:32:27.126Z,6974.4
2023-02-15T11:34:27.394Z,6310.7
2023-02-15T11:36:30.892Z,5710.1
2023-02-15T11:38:26.774Z,8103.1
2023-02-15T11:40:27.178Z,6634.2
2023-02-15T11:42:30.455Z,5431.7
2023-02-15T11:44:27.434Z,4675.1
2023-02-15T11:46:27.439Z,4675.1
2023-02-15T11:48:26.717Z,4914.8
2023-02-15T11:50:27.082Z,5166.8
2023-02-15T11:52:27.261Z,5431.7
2023-02-15T11:54:27.339Z,5710.1
2023-02-15T11:56:27.593Z,5710.1
2023-02-15T11:58:32.643Z,5431.7
2023-02-15T12:00:27.767Z,5431.7
2023-02-15T12:02:33.863Z,5166.8
2023-02-15T12:04:33.876Z,6002.9
2023-02-15T12:06:34.284Z,6634.2
2023-02-15T12:08:34.156Z,6310.7
2023-02-15T12:10:26.760Z,6974.4
2023-02-15T12:12:27.354Z,7332
2023-02-15T12:14:26.940Z,6634.2
2023-02-15T12:16:27.192Z,7332
2023-02-15T12:18:27.446Z,8955.3
2023-02-15T12:20:26.811Z,9897.1
2023-02-15T12:22:27.655Z,10938
2023-02-15T12:24:27.529Z,12088.4
2023-02-15T12:26:27.328Z,12708.2
2023-02-15T12:28:29.877Z,14044.7
2023-02-15T12:30:27.586Z,17154.2
2023-02-15T12:32:34.486Z,13359.7
2023-02-15T12:34:30.865Z,9414.4
2023-02-15T12:36:27.290Z,8955.3
2023-02-15T12:38:27.608Z,10938
2023-02-15T12:40:26.755Z,13359.7
2023-02-15T12:42:26.949Z,20952.2
2023-02-15T12:44:27.029Z,36315.5
2023-02-15T12:46:37.809Z,36315.5
2023-02-15T12:48:26.929Z,38177.4
2023-02-15T12:50:34.922Z,54176.4
2023-02-15T12:52:27.226Z,36315.5
2023-02-15T12:54:27.599Z,66171.2
2023-02-15T12:56:27.616Z,69563.8
2023-02-15T12:58:33.954Z,66171.2
2023-02-15T13:00:26.753Z,59874.1
2023-02-15T13:04:26.891Z,51534.2
2023-02-15T13:06:27.724Z,69563.8
2023-02-15T13:08:27.396Z,69563.8
2023-02-15T13:10:27.375Z,69563.8
2023-02-15T13:12:27.023Z,66171.2
2023-02-15T13:14:26.998Z,69563.8
2023-02-15T13:16:26.882Z,66171.2
2023-02-15T13:18:27.292Z,66171.2
2023-02-15T13:20:34.203Z,66171.2
2023-02-15T13:22:27.840Z,62944
2023-02-15T13:24:27.509Z,62944
2023-02-15T13:26:26.976Z,62944
2023-02-15T13:28:26.806Z,59874.1
2023-02-15T13:30:27.657Z,59874.1
2023-02-15T13:32:27.820Z,62944
2023-02-15T13:34:27.069Z,59874.1
2023-02-15T13:36:30.545Z,49020.8
2023-02-15T13:38:27.372Z,24343
2023-02-15T13:40:27.668Z,31257
2023-02-15T13:42:31.086Z,32859.6
2023-02-15T13:44:30.994Z,51534.2
2023-02-15T13:46:26.981Z,56954
2023-02-15T13:48:34.209Z,56954
2023-02-15T13:50:27.535Z,56954
2023-02-15T13:52:27.999Z,56954
2023-02-15T13:54:27.293Z,56954
2023-02-15T13:56:30.997Z,56954
2023-02-15T13:58:30.191Z,56954
2023-02-15T14:00:26.880Z,56954
2023-02-15T14:02:30.861Z,54176.4
2023-02-15T14:06:27.565Z,54176.4
2023-02-15T14:08:27.467Z,54176.4
2023-02-15T14:10:27.397Z,54176.4
2023-02-15T14:12:30.443Z,49020.8
2023-02-15T14:14:30.815Z,51534.2
2023-02-15T14:16:26.985Z,51534.2
2023-02-15T14:18:34.000Z,51534.2
2023-02-15T14:20:27.418Z,44355.9
2023-02-15T14:22:27.657Z,44355.9
2023-02-15T14:24:27.571Z,44355.9
2023-02-15T14:26:26.799Z,44355.9
2023-02-15T14:28:27.379Z,44355.9
2023-02-15T14:30:31.006Z,46630
2023-02-15T14:32:27.513Z,44355.9
2023-02-15T14:34:27.696Z,40134.8
2023-02-15T14:36:31.262Z,38177.4
2023-02-15T14:38:27.476Z,40134.8
2023-02-15T14:40:30.416Z,40134.8
2023-02-15T14:42:26.949Z,38177.4
2023-02-15T14:44:27.372Z,36315.5
2023-02-15T14:46:27.708Z,31257
2023-02-15T14:48:27.439Z,32859.6
2023-02-15T14:50:30.633Z,32859.6
2023-02-15T14:52:26.831Z,31257
2023-02-15T14:56:30.977Z,23155.8
2023-02-15T14:58:30.235Z,26903.2
2023-02-15T15:00:31.031Z,23155.8
2023-02-15T15:02:26.839Z,19930.4
2023-02-15T15:04:30.420Z,18033.7
2023-02-15T15:08:26.850Z,16317.6
2023-02-15T15:10:31.010Z,11498.8
2023-02-15T15:12:27.596Z,12708.2
2023-02-15T15:14:34.129Z,14044.7
2023-02-15T15:16:26.925Z,15521.8
2023-02-15T15:18:27.385Z,7707.9
2023-02-15T15:20:27.237Z,5710.1
2023-02-15T15:22:27.265Z,8518.5
2023-02-15T15:24:26.944Z,11498.8
2023-02-15T15:26:33.993Z,10404.6
2023-02-15T15:28:26.842Z,8103.1
2023-02-15T15:30:26.861Z,9414.4
2023-02-15T15:32:27.874Z,9414.4
2023-02-15T15:34:27.349Z,6634.2
2023-02-15T15:36:27.610Z,4914.8
2023-02-15T15:38:27.427Z,4023.9
2023-02-15T15:40:27.805Z,3827.6
2023-02-15T15:42:34.075Z,2697.3
2023-02-15T15:44:27.379Z,1998.2
2023-02-15T15:46:34.093Z,1480.3
2023-02-15T15:48:26.849Z,1212
2023-02-15T15:50:26.946Z,992.3
2023-02-15T15:52:30.081Z,854.1
2023-02-15T15:54:27.300Z,854.1
2023-02-15T15:56:27.642Z,665.1
2023-02-15T15:58:26.959Z,601.8
2023-02-15T16:00:27.367Z,601.8
2023-02-15T16:02:27.457Z,492.7
2023-02-15T16:04:27.729Z,468.7
2023-02-15T16:06:30.592Z,383.8
2023-02-15T16:08:26.917Z,365
2023-02-15T16:10:27.943Z,314.2
2023-02-15T16:12:26.863Z,284.3
2023-02-15T16:14:27.568Z,244.7
2023-02-15T16:16:27.016Z,232.8
2023-02-15T16:18:34.117Z,210.6
2023-02-15T16:20:26.947Z,181.3
2023-02-15T16:22:34.028Z,164
2023-02-15T16:24:30.916Z,134.3
2023-02-15T16:26:27.512Z,121.5
2023-02-15T16:28:30.022Z,99.5
2023-02-15T16:30:27.558Z,85.6
2023-02-15T16:32:31.053Z,77.5
2023-02-15T16:34:27.299Z,63.4
2023-02-15T16:36:27.115Z,51.9
2023-02-15T16:38:27.527Z,42.5
2023-02-15T16:40:27.223Z,34.8
2023-02-15T16:42:30.704Z,27.1
2023-02-15T16:44:27.583Z,22.2
2023-02-15T16:46:30.992Z,16.4
2023-02-15T16:50:26.999Z,9.5
2023-02-15T16:52:30.998Z,6.7
2023-02-15T16:54:30.933Z,4.5
2023-02-15T16:56:30.005Z,3.2
2023-02-15T16:58:26.941Z,2.1
2023-02-15T17:00:27.592Z,1.5
2023-02-15T17:02:43.360Z,1.1
2023-02-15T17:04:30.956Z,0.8
2023-02-15T17:06:26.865Z,0.6
2023-02-15T17:08:26.987Z,0.4
2023-02-15T17:10:27.588Z,0.3
2023-02-15T17:14:03.665Z,0.2
2023-02-15T17:16:04.239Z,0.1
2023-02-15T17:19:26.392Z,0
2023-02-15T17:21:31.048Z,0
2023-02-15T17:22:39.581Z,0
2023-02-15T17:24:39.063Z,0
2023-02-15T17:26:47.771Z,0
2023-02-15T17:28:42.387Z,1
2023-02-15T17:30:39.070Z,1
2023-02-15T17:32:44.836Z,1
2023-02-15T17:34:42.392Z,1
2023-02-15T17:36:39.140Z,1
2023-02-15T17:38:42.371Z,1
2023-02-15T17:40:42.333Z,1
2023-02-15T17:42:39.134Z,1
2023-02-15T17:44:42.818Z,1
2023-02-15T17:46:39.124Z,1
2023-02-15T17:48:39.241Z,1
2023-02-15T17:50:45.477Z,1
2023-02-15T17:52:39.123Z,1
2023-02-15T17:54:43.171Z,1
2023-02-15T17:56:42.379Z,1
2023-02-15T17:58:42.376Z,1
2023-02-15T18:00:42.369Z,1
2023-02-15T18:02:46.012Z,1
2023-02-15T18:04:39.146Z,1
2023-02-15T18:06:42.391Z,1
2023-02-15T18:08:39.156Z,1
2023-02-15T18:10:45.444Z,1
2023-02-15T18:12:42.287Z,1
2023-02-15T18:14:39.217Z,1
2023-02-15T18:16:36.580Z,1
2023-02-15T18:18:39.106Z,1
2023-02-15T18:20:40.956Z,1
2023-02-15T18:22:39.141Z,1
2023-02-15T18:24:39.184Z,1
2023-02-15T18:26:42.532Z,1
2023-02-15T18:28:39.222Z,1
2023-02-15T18:30:39.275Z,1
2023-02-15T18:32:39.638Z,1
2023-02-15T18:34:42.291Z,1
2023-02-15T18:36:39.281Z,1
2023-02-15T18:38:48.759Z,1
2023-02-15T18:40:39.164Z,1
2023-02-15T18:42:42.673Z,1
2023-02-15T18:44:39.238Z,1
2023-02-15T18:46:39.610Z,1
2023-02-15T18:48:39.249Z,1
2023-02-15T18:50:39.118Z,1
2023-02-15T18:52:39.668Z,1
2023-02-15T18:54:39.235Z,1
2023-02-15T18:56:46.358Z,1
2023-02-15T18:58:39.268Z,1
2023-02-15T19:02:42.492Z,1
2023-02-15T19:04:39.684Z,1
2023-02-15T19:06:45.672Z,1
2023-02-15T19:08:39.312Z,1
2023-02-15T19:10:44.425Z,1
2023-02-15T19:12:39.446Z,1
2023-02-15T19:14:39.173Z,1
2023-02-15T19:16:42.308Z,1
2023-02-15T19:18:39.270Z,1
2023-02-15T19:20:39.344Z,1
2023-02-15T19:22:40.528Z,1
2023-02-15T19:24:39.259Z,1
2023-02-15T19:26:45.181Z,1
2023-02-15T19:30:42.455Z,1
2023-02-15T19:32:39.294Z,1
2023-02-15T19:34:39.289Z,1
2023-02-15T19:36:39.334Z,1
2023-02-15T19:38:39.235Z,1
2023-02-15T19:40:39.308Z,1
2023-02-15T19:42:45.584Z,1
2023-02-15T19:44:39.312Z,1
2023-02-15T19:46:39.239Z,0.1
2023-02-15T19:48:39.252Z,1
2023-02-15T19:50:41.047Z,1
2023-02-15T19:52:39.293Z,1
2023-02-15T19:54:39.261Z,1
2023-02-15T19:56:39.305Z,1
2023-02-15T19:58:45.814Z,1
2023-02-15T20:00:39.280Z,1
2023-02-15T20:02:39.215Z,1
2023-02-15T20:04:42.590Z,1
2023-02-15T20:06:39.248Z,1
2023-02-15T20:08:40.937Z,1
2023-02-15T20:10:45.557Z,1
2023-02-15T20:12:39.250Z,1
2023-02-15T20:14:39.324Z,1
2023-02-15T20:16:39.628Z,1
2023-02-15T20:18:39.305Z,1
2023-02-15T20:20:42.501Z,1
2023-02-15T20:22:39.180Z,1
2023-02-15T20:24:39.239Z,1
2023-02-15T20:28:45.602Z,1
2023-02-15T20:30:39.266Z,1
2023-02-15T20:32:42.757Z,1
2023-02-15T20:34:39.296Z,1
2023-02-15T20:36:39.343Z,1
2023-02-15T20:38:41.953Z,1
2023-02-15T20:40:45.672Z,1
2023-02-15T20:42:39.299Z,1
2023-02-15T20:44:39.333Z,1
2023-02-15T20:46:44.195Z,1
2023-02-15T20:48:39.284Z,1
2023-02-15T20:50:39.313Z,1
2023-02-15T20:52:43.306Z,1
2023-02-15T20:54:39.582Z,1
2023-02-15T20:56:45.673Z,1
2023-02-15T20:58:39.315Z,1
2023-02-15T21:00:39.265Z,1
2023-02-15T21:02:41.554Z,1
2023-02-15T21:04:39.181Z,1
2023-02-15T21:06:42.431Z,1
2023-02-15T21:08:42.552Z,1
2023-02-15T21:12:39.214Z,1
2023-02-15T21:14:39.264Z,1
2023-02-15T21:16:40.376Z,1
2023-02-15T21:18:44.199Z,1
2023-02-15T21:20:39.201Z,1
2023-02-15T21:22:39.307Z,1
2023-02-15T21:24:44.103Z,1
2023-02-15T21:26:39.277Z,1
2023-02-15T21:28:39.293Z,1
2023-02-15T21:30:39.346Z,1
2023-02-15T21:32:45.621Z,1
2023-02-15T21:34:39.340Z,1
2023-02-15T21:36:39.277Z,1
2023-02-15T21:38:40.948Z,1
2023-02-15T21:40:45.746Z,1
2023-02-15T21:42:36.552Z,1
2023-02-15T21:44:40.939Z,1
2023-02-15T21:46:39.413Z,1
2023-02-15T21:48:42.399Z,1
2023-02-15T21:50:42.448Z,1
2023-02-15T21:52:42.449Z,1
2023-02-15T21:54:39.364Z,1
2023-02-15T21:56:42.321Z,1
2023-02-15T21:58:42.457Z,1
2023-02-15T22:00:42.480Z,1
2023-02-15T22:02:42.478Z,1
2023-02-15T22:04:42.499Z,1
2023-02-15T22:06:42.771Z,1
2023-02-15T22:08:39.344Z,1
2023-02-15T22:10:39.374Z,1
2023-02-15T22:12:46.877Z,1
2023-02-15T22:14:42.396Z,1
2023-02-15T22:16:39.486Z,1
2023-02-15T22:18:41.788Z,1
2023-02-15T22:20:42.377Z,1
2023-02-15T22:22:39.350Z,1
2023-02-15T22:24:42.665Z,1
2023-02-15T22:26:39.298Z,1
2023-02-15T22:28:42.490Z,1
2023-02-15T22:32:45.655Z,1
2023-02-15T22:34:39.364Z,1
2023-02-15T22:36:39.200Z,1
2023-02-15T22:38:40.615Z,1
2023-02-15T22:40:39.330Z,1
2023-02-15T22:42:39.254Z,1
2023-02-15T22:44:40.616Z,1
2023-02-15T22:46:39.252Z,1
2023-02-15T22:48:39.275Z,1
2023-02-15T22:50:39.281Z,1
2023-02-15T22:52:39.339Z,1
2023-02-15T22:54:42.517Z,1
2023-02-15T22:56:39.224Z,1
2023-02-15T22:58:40.992Z,1
2023-02-15T23:00:45.596Z,1
2023-02-15T23:02:42.448Z,1
2023-02-15T23:04:39.464Z,1
2023-02-15T23:06:39.323Z,1
2023-02-15T23:08:42.270Z,1
2023-02-15T23:10:45.677Z,1
2023-02-15T23:12:42.401Z,1
2023-02-15T23:14:36.603Z,1
2023-02-15T23:16:49.756Z,1
2023-02-15T23:18:42.435Z,1
2023-02-15T23:20:42.475Z,1
2023-02-15T23:22:39.338Z,1
2023-02-15T23:24:44.086Z,1
2023-02-15T23:26:39.167Z,1
2023-02-15T23:28:45.676Z,1
2023-02-15T23:30:39.301Z,1
2023-02-15T23:32:42.476Z,1
2023-02-15T23:34:39.462Z,1
2023-02-15T23:36:39.343Z,1
2023-02-15T23:38:49.321Z,1
2023-02-15T23:40:39.329Z,1
2023-02-15T23:42:42.780Z,1
2023-02-15T23:44:39.409Z,1
2023-02-15T23:46:45.614Z,1
2023-02-15T23:48:39.292Z,1
2023-02-15T23:50:45.720Z,1
2023-02-15T23:54:39.325Z,1
2023-02-15T23:56:39.343Z,1
2023-02-15T23:58:42.224Z,1
